createdAt,value
2018-04-28T00:00:07.860Z,59.12
2018-04-28T00:00:48.384Z,59.32
2018-04-28T00:01:28.888Z,59.51
2018-04-28T00:02:09.427Z,59.12
2018-04-28T00:02:49.953Z,58.84
2018-04-28T00:03:30.474Z,58.94
2018-04-28T00:04:11.000Z,59.03
2018-04-28T00:04:51.541Z,59.12
2018-04-28T00:05:32.056Z,58.94
2018-04-28T00:06:12.566Z,59.12
2018-04-28T00:06:53.118Z,59.51
2018-04-28T00:07:33.627Z,59.03
2018-04-28T00:08:14.144Z,58.94
2018-04-28T00:08:54.656Z,59.22
2018-04-28T00:09:35.186Z,59.22
2018-04-28T00:10:15.702Z,58.64
2018-04-28T00:10:56.227Z,58.94
2018-04-28T00:11:36.756Z,58.94
2018-04-28T00:12:17.284Z,59.22
2018-04-28T00:12:57.802Z,58.64
2018-04-28T00:13:38.323Z,59.22
2018-04-28T00:14:18.850Z,58.84
2018-04-28T00:14:59.378Z,59.03
2018-04-28T00:15:39.896Z,59.32
2018-04-28T00:16:20.436Z,59.12
2018-04-28T00:17:00.958Z,59.41
2018-04-28T00:17:41.491Z,58.94
2018-04-28T00:18:22.003Z,59.03
2018-04-28T00:19:02.524Z,58.84
2018-04-28T00:19:43.041Z,59.22
2018-04-28T00:20:23.570Z,59.22
2018-04-28T00:21:04.085Z,58.94
2018-04-28T00:21:44.613Z,59.22
2018-04-28T00:22:25.148Z,59.03
2018-04-28T00:23:05.664Z,58.74
2018-04-28T00:23:46.184Z,58.94
2018-04-28T00:24:26.706Z,58.94
2018-04-28T00:25:07.218Z,58.84
2018-04-28T00:25:47.754Z,58.94
2018-04-28T00:26:28.263Z,58.94
2018-04-28T00:27:08.785Z,59.03
2018-04-28T00:27:49.306Z,58.36
2018-04-28T00:28:29.831Z,58.17
2018-04-28T00:29:10.352Z,58.07
2018-04-28T00:29:50.869Z,58.45
2018-04-28T00:30:31.400Z,58.17
2018-04-28T00:31:11.904Z,58.26
2018-04-28T00:31:52.422Z,58.94
2018-04-28T00:32:32.941Z,59.03
2018-04-28T00:33:13.468Z,59.03
2018-04-28T00:33:53.993Z,58.94
2018-04-28T00:34:34.504Z,58.74
2018-04-28T00:35:15.030Z,58.84
2018-04-28T00:35:55.557Z,58.26
2018-04-28T00:36:36.076Z,58.36
2018-04-28T00:37:16.597Z,58.36
2018-04-28T00:37:57.116Z,58.17
2018-04-28T00:38:37.638Z,58.17
2018-04-28T00:39:18.160Z,58.36
2018-04-28T00:39:58.681Z,57.97
2018-04-28T00:40:39.205Z,58.26
2018-04-28T00:41:19.727Z,58.36
2018-04-28T00:42:00.253Z,58.94
2018-04-28T00:42:40.775Z,58.84
2018-04-28T00:43:21.289Z,59.12
2018-04-28T00:44:01.812Z,59.22
2018-04-28T00:44:42.345Z,59.32
2018-04-28T00:45:22.859Z,59.03
2018-04-28T00:46:03.375Z,59.12
2018-04-28T00:46:43.887Z,59.22
2018-04-28T00:47:24.408Z,59.03
2018-04-28T00:48:04.935Z,59.22
2018-04-28T00:48:45.469Z,59.22
2018-04-28T00:49:25.981Z,59.12
2018-04-28T00:50:06.508Z,59.03
2018-04-28T00:50:47.067Z,58.64
2018-04-28T00:51:27.602Z,58.84
2018-04-28T00:52:08.130Z,58.94
2018-04-28T00:52:48.654Z,58.84
2018-04-28T00:53:29.178Z,58.94
2018-04-28T00:54:09.704Z,58.84
2018-04-28T00:54:50.222Z,58.94
2018-04-28T00:55:30.739Z,59.22
2018-04-28T00:56:11.267Z,59.03
2018-04-28T00:56:51.773Z,58.74
2018-04-28T00:57:32.290Z,58.94
2018-04-28T00:58:12.808Z,58.94
2018-04-28T00:58:53.331Z,58.94
2018-04-28T00:59:33.851Z,58.94
2018-04-28T01:00:14.372Z,59.12
2018-04-28T01:00:54.889Z,58.84
2018-04-28T01:01:35.403Z,59.03
2018-04-28T01:02:15.938Z,58.74
2018-04-28T01:02:56.457Z,58.74
2018-04-28T01:03:36.993Z,59.03
2018-04-28T01:04:17.516Z,59.03
2018-04-28T01:04:58.034Z,58.84
2018-04-28T01:05:38.553Z,58.94
2018-04-28T01:06:19.097Z,58.84
2018-04-28T01:06:59.622Z,59.32
2018-04-28T01:07:40.139Z,59.03
2018-04-28T01:08:20.660Z,59.12
2018-04-28T01:09:01.190Z,58.84
2018-04-28T01:09:41.711Z,59.32
2018-04-28T01:10:22.229Z,59.03
2018-04-28T01:11:02.753Z,59.03
2018-04-28T01:11:43.272Z,59.12
2018-04-28T01:12:23.783Z,59.22
2018-04-28T01:13:04.306Z,59.32
2018-04-28T01:13:44.848Z,58.84
2018-04-28T01:14:25.373Z,59.03
2018-04-28T01:15:05.892Z,58.84
2018-04-28T01:15:46.409Z,58.84
2018-04-28T01:16:26.930Z,59.32
2018-04-28T01:17:07.467Z,59.22
2018-04-28T01:17:47.986Z,58.84
2018-04-28T01:18:28.509Z,58.94
2018-04-28T01:19:09.027Z,59.32
2018-04-28T01:19:49.551Z,59.32
2018-04-28T01:20:30.085Z,59.7
2018-04-28T01:21:10.615Z,59.12
2018-04-28T01:21:51.140Z,59.12
2018-04-28T01:22:31.650Z,59.12
2018-04-28T01:23:12.173Z,59.7
2018-04-28T01:23:52.699Z,59.22
2018-04-28T01:24:33.223Z,59.22
2018-04-28T01:25:13.731Z,59.51
2018-04-28T01:25:54.250Z,59.22
2018-04-28T01:26:34.783Z,59.32
2018-04-28T01:27:15.306Z,59.41
2018-04-28T01:27:55.815Z,59.12
2018-04-28T01:28:36.316Z,59.32
2018-04-28T01:29:16.836Z,59.41
2018-04-28T01:29:57.385Z,60.08
2018-04-28T01:30:37.888Z,59.99
2018-04-28T01:31:18.405Z,59.61
2018-04-28T01:31:58.935Z,60.28
2018-04-28T01:32:39.464Z,60.18
2018-04-28T01:33:19.985Z,60.18
2018-04-28T01:34:00.497Z,60.18
2018-04-28T01:34:41.009Z,60.28
2018-04-28T01:35:21.533Z,60.44
2018-04-28T01:36:02.052Z,60.66
2018-04-28T01:36:42.567Z,60.92
2018-04-28T01:37:23.081Z,60.92
2018-04-28T01:38:03.611Z,61.02
2018-04-28T01:38:44.131Z,60.92
2018-04-28T01:39:24.638Z,61.02
2018-04-28T01:40:05.160Z,61.69
2018-04-28T01:40:45.665Z,61.02
2018-04-28T01:41:26.180Z,61.05
2018-04-28T01:42:06.715Z,61.11
2018-04-28T01:42:47.236Z,60.82
2018-04-28T01:43:27.753Z,61.11
2018-04-28T01:44:08.259Z,61.02
2018-04-28T01:44:48.802Z,60.63
2018-04-28T01:45:29.318Z,61.02
2018-04-28T01:46:09.837Z,61.72
2018-04-28T01:46:50.355Z,61.21
2018-04-28T01:47:30.882Z,61.52
2018-04-28T01:48:11.419Z,60.95
2018-04-28T01:48:51.933Z,61.59
2018-04-28T01:49:32.449Z,61.62
2018-04-28T01:50:12.953Z,61.62
2018-04-28T01:50:53.471Z,61.78
2018-04-28T01:51:33.995Z,61.4
2018-04-28T01:52:14.523Z,61.21
2018-04-28T01:52:55.050Z,61.59
2018-04-28T01:53:35.566Z,61.59
2018-04-28T01:54:16.077Z,61.49
2018-04-28T01:54:56.596Z,61.49
2018-04-28T01:55:37.124Z,61.33
2018-04-28T01:56:17.652Z,61.62
2018-04-28T01:56:58.169Z,61.49
2018-04-28T01:57:38.684Z,61.49
2018-04-28T01:58:19.210Z,61.59
2018-04-28T01:58:59.733Z,61.49
2018-04-28T01:59:40.252Z,61.33
2018-04-28T02:00:20.774Z,61.59
2018-04-28T02:01:01.291Z,61.3
2018-04-28T02:01:41.812Z,61.88
2018-04-28T02:02:22.353Z,61.98
2018-04-28T02:03:02.869Z,61.98
2018-04-28T02:03:43.396Z,61.59
2018-04-28T02:04:23.912Z,61.4
2018-04-28T02:05:04.429Z,61.69
2018-04-28T02:05:44.946Z,61.69
2018-04-28T02:06:25.463Z,61.78
2018-04-28T02:07:05.975Z,62.07
2018-04-28T02:07:46.507Z,61.78
2018-04-28T02:08:27.032Z,61.3
2018-04-28T02:09:07.717Z,61.59
2018-04-28T02:09:48.241Z,61.59
2018-04-28T02:10:28.757Z,61.49
2018-04-28T02:11:09.275Z,61.4
2018-04-28T02:11:49.794Z,61.11
2018-04-28T02:12:30.315Z,60.63
2018-04-28T02:13:10.846Z,61.21
2018-04-28T02:13:51.375Z,61.11
2018-04-28T02:14:31.896Z,61.02
2018-04-28T02:15:12.414Z,61.02
2018-04-28T02:15:52.930Z,61.11
2018-04-28T02:16:33.450Z,60.92
2018-04-28T02:17:13.967Z,60.63
2018-04-28T02:17:54.493Z,60.53
2018-04-28T02:18:35.011Z,60.53
2018-04-28T02:19:15.537Z,60.44
2018-04-28T02:19:56.054Z,60.28
2018-04-28T02:20:36.592Z,60.25
2018-04-28T02:21:17.099Z,60.15
2018-04-28T02:21:57.621Z,60.25
2018-04-28T02:22:38.137Z,60.25
2018-04-28T02:23:18.649Z,60.28
2018-04-28T02:23:59.181Z,60.08
2018-04-28T02:24:39.692Z,60.25
2018-04-28T02:25:20.221Z,60.28
2018-04-28T02:26:00.742Z,60.15
2018-04-28T02:26:41.267Z,60.25
2018-04-28T02:27:21.789Z,60.44
2018-04-28T02:28:02.315Z,60.25
2018-04-28T02:28:42.829Z,60.25
2018-04-28T02:29:23.341Z,60.08
2018-04-28T02:30:03.863Z,60.25
2018-04-28T02:30:44.395Z,60.35
2018-04-28T02:31:24.922Z,60.15
2018-04-28T02:32:05.440Z,60.25
2018-04-28T02:32:45.960Z,60.15
2018-04-28T02:33:26.483Z,60.15
2018-04-28T02:34:06.994Z,60.44
2018-04-28T02:34:47.501Z,60.72
2018-04-28T02:35:28.012Z,60.92
2018-04-28T02:36:08.525Z,60.72
2018-04-28T02:36:49.060Z,61.02
2018-04-28T02:37:29.591Z,61.11
2018-04-28T02:38:10.110Z,60.63
2018-04-28T02:38:50.629Z,61.02
2018-04-28T02:39:31.159Z,61.3
2018-04-28T02:40:11.682Z,60.72
2018-04-28T02:40:52.197Z,61.21
2018-04-28T02:41:32.707Z,61.02
2018-04-28T02:42:13.234Z,61.02
2018-04-28T02:42:53.752Z,61.69
2018-04-28T02:43:34.256Z,61.49
2018-04-28T02:44:14.766Z,61.49
2018-04-28T02:44:55.287Z,61.98
2018-04-28T02:45:35.814Z,61.69
2018-04-28T02:46:16.351Z,61.78
2018-04-28T02:46:56.891Z,61.3
2018-04-28T02:47:37.411Z,61.49
2018-04-28T02:48:17.932Z,61.4
2018-04-28T02:48:58.461Z,61.69
2018-04-28T02:49:38.989Z,61.49
2018-04-28T02:50:19.510Z,61.78
2018-04-28T02:51:00.037Z,61.49
2018-04-28T02:51:40.535Z,61.59
2018-04-28T02:52:21.059Z,61.49
2018-04-28T02:53:01.579Z,61.11
2018-04-28T02:53:42.100Z,61.49
2018-04-28T02:54:22.616Z,61.88
2018-04-28T02:55:03.143Z,61.98
2018-04-28T02:55:43.663Z,61.49
2018-04-28T02:56:24.180Z,61.78
2018-04-28T02:57:04.695Z,62.07
2018-04-28T02:57:45.228Z,62.07
2018-04-28T02:58:25.744Z,61.88
2018-04-28T02:59:06.250Z,61.69
2018-04-28T02:59:46.768Z,61.59
2018-04-28T03:00:27.287Z,61.4
2018-04-28T03:01:07.802Z,61.69
2018-04-28T03:01:48.316Z,61.78
2018-04-28T03:02:28.845Z,61.69
2018-04-28T03:03:09.362Z,61.69
2018-04-28T03:03:49.885Z,61.49
2018-04-28T03:04:30.398Z,61.91
2018-04-28T03:05:10.936Z,62.07
2018-04-28T03:05:51.454Z,61.78
2018-04-28T03:06:31.971Z,61.88
2018-04-28T03:07:12.480Z,62.07
2018-04-28T03:07:53.004Z,61.69
2018-04-28T03:08:33.526Z,61.78
2018-04-28T03:09:14.044Z,61.59
2018-04-28T03:09:54.559Z,61.88
2018-04-28T03:10:35.079Z,61.69
2018-04-28T03:11:15.601Z,62.26
2018-04-28T03:11:56.136Z,62.74
2018-04-28T03:12:36.648Z,62.55
2018-04-28T03:13:17.177Z,62.65
2018-04-28T03:13:57.707Z,62.84
2018-04-28T03:14:38.227Z,62.55
2018-04-28T03:15:18.740Z,62.45
2018-04-28T03:15:59.255Z,62.45
2018-04-28T03:16:39.836Z,62.45
2018-04-28T03:17:20.300Z,62.74
2018-04-28T03:18:00.815Z,62.55
2018-04-28T03:18:41.332Z,62.65
2018-04-28T03:19:21.856Z,62.36
2018-04-28T03:20:02.372Z,63.22
2018-04-28T03:20:42.895Z,62.45
2018-04-28T03:21:23.411Z,62.45
2018-04-28T03:22:03.953Z,62.36
2018-04-28T03:22:44.472Z,62.74
2018-04-28T03:23:24.988Z,62.65
2018-04-28T03:24:05.514Z,62.84
2018-04-28T03:24:46.040Z,62.55
2018-04-28T03:25:26.558Z,62.65
2018-04-28T03:26:07.067Z,62.36
2018-04-28T03:26:47.588Z,62.45
2018-04-28T03:27:28.118Z,62.45
2018-04-28T03:28:08.630Z,62.36
2018-04-28T03:28:49.153Z,62.36
2018-04-28T03:29:29.673Z,62.74
2018-04-28T03:30:10.192Z,62.55
2018-04-28T03:30:50.722Z,62.36
2018-04-28T03:31:31.225Z,62.45
2018-04-28T03:32:11.736Z,63.03
2018-04-28T03:32:52.281Z,63.03
2018-04-28T03:33:32.800Z,62.36
2018-04-28T03:34:13.326Z,63.03
2018-04-28T03:34:53.848Z,62.45
2018-04-28T03:35:34.364Z,63.03
2018-04-28T03:36:14.896Z,62.93
2018-04-28T03:36:55.416Z,62.93
2018-04-28T03:37:35.929Z,62.55
2018-04-28T03:38:16.443Z,62.84
2018-04-28T03:38:56.965Z,62.84
2018-04-28T03:39:37.476Z,62.84
2018-04-28T03:40:18.032Z,62.36
2018-04-28T03:40:58.536Z,62.36
2018-04-28T03:41:39.036Z,62.36
2018-04-28T03:42:19.578Z,62.36
2018-04-28T03:43:00.085Z,62.65
2018-04-28T03:43:40.617Z,63.03
2018-04-28T03:44:21.142Z,62.55
2018-04-28T03:45:01.651Z,62.55
2018-04-28T03:45:42.168Z,62.84
2018-04-28T03:46:22.701Z,62.84
2018-04-28T03:47:03.227Z,62.55
2018-04-28T03:47:43.745Z,62.84
2018-04-28T03:48:24.279Z,62.26
2018-04-28T03:49:04.813Z,62.93
2018-04-28T03:49:45.332Z,62.84
2018-04-28T03:50:25.851Z,62.65
2018-04-28T03:51:06.368Z,62.84
2018-04-28T03:51:46.916Z,62.55
2018-04-28T03:52:27.447Z,62.84
2018-04-28T03:53:07.983Z,63.32
2018-04-28T03:53:48.503Z,62.84
2018-04-28T03:54:29.020Z,62.65
2018-04-28T03:55:09.540Z,63.32
2018-04-28T03:55:50.064Z,63.32
2018-04-28T03:56:30.579Z,63.03
2018-04-28T03:57:11.080Z,62.93
2018-04-28T03:57:51.596Z,63.22
2018-04-28T03:58:32.102Z,62.65
2018-04-28T03:59:12.620Z,62.74
2018-04-28T03:59:53.159Z,63.12
2018-04-28T04:00:33.671Z,62.84
2018-04-28T04:01:14.197Z,63.03
2018-04-28T04:01:54.716Z,62.84
2018-04-28T04:02:35.241Z,63.03
2018-04-28T04:03:15.755Z,63.29
2018-04-28T04:03:56.291Z,63.29
2018-04-28T04:04:36.806Z,63.67
2018-04-28T04:05:17.333Z,63.67
2018-04-28T04:05:57.854Z,64.15
2018-04-28T04:06:38.374Z,63.76
2018-04-28T04:07:18.885Z,63.96
2018-04-28T04:07:59.424Z,63.86
2018-04-28T04:08:39.925Z,64.18
2018-04-28T04:09:20.455Z,63.67
2018-04-28T04:10:00.979Z,63.79
2018-04-28T04:10:41.489Z,63.6
2018-04-28T04:11:22.003Z,63.6
2018-04-28T04:12:02.543Z,64.28
2018-04-28T04:12:43.029Z,63.89
2018-04-28T04:13:23.556Z,64.18
2018-04-28T04:14:04.068Z,63.79
2018-04-28T04:14:44.598Z,63.79
2018-04-28T04:15:25.128Z,63.79
2018-04-28T04:16:05.641Z,63.79
2018-04-28T04:16:46.160Z,64.09
2018-04-28T04:17:26.675Z,64.18
2018-04-28T04:18:07.201Z,64.28
2018-04-28T04:18:47.726Z,64.05
2018-04-28T04:19:28.239Z,64.47
2018-04-28T04:20:08.762Z,64.28
2018-04-28T04:20:49.284Z,64.18
2018-04-28T04:21:29.792Z,64.28
2018-04-28T04:22:10.310Z,64.37
2018-04-28T04:22:50.833Z,64.47
2018-04-28T04:23:31.351Z,64.47
2018-04-28T04:24:11.859Z,64.28
2018-04-28T04:24:52.386Z,64.37
2018-04-28T04:25:32.912Z,64.15
2018-04-28T04:26:13.438Z,64.47
2018-04-28T04:26:53.967Z,64.47
2018-04-28T04:27:34.496Z,64.66
2018-04-28T04:28:15.012Z,64.28
2018-04-28T04:28:55.527Z,63.99
2018-04-28T04:29:36.065Z,63.89
2018-04-28T04:30:16.584Z,64.47
2018-04-28T04:30:57.102Z,64.37
2018-04-28T04:31:37.627Z,64.76
2018-04-28T04:32:18.154Z,65.05
2018-04-28T04:32:58.685Z,64.95
2018-04-28T04:33:39.201Z,64.95
2018-04-28T04:34:19.742Z,65.23
2018-04-28T04:35:00.256Z,64.47
2018-04-28T04:35:40.784Z,64.66
2018-04-28T04:36:21.317Z,64.66
2018-04-28T04:37:01.840Z,64.47
2018-04-28T04:37:42.418Z,64.28
2018-04-28T04:38:22.880Z,64.56
2018-04-28T04:39:03.403Z,64.66
2018-04-28T04:39:43.912Z,64.56
2018-04-28T04:40:24.436Z,64.66
2018-04-28T04:41:04.954Z,64.76
2018-04-28T04:41:45.473Z,64.28
2018-04-28T04:42:26.014Z,64.28
2018-04-28T04:43:06.533Z,63.99
2018-04-28T04:43:47.061Z,64.28
2018-04-28T04:44:27.590Z,64.85
2018-04-28T04:45:08.108Z,64.56
2018-04-28T04:45:48.624Z,64.66
2018-04-28T04:46:29.139Z,64.28
2018-04-28T04:47:09.657Z,64.66
2018-04-28T04:47:50.179Z,64.56
2018-04-28T04:48:30.705Z,64.37
2018-04-28T04:49:11.224Z,64.37
2018-04-28T04:49:51.736Z,64.56
2018-04-28T04:50:32.263Z,64.28
2018-04-28T04:51:12.782Z,64.18
2018-04-28T04:51:53.310Z,64.37
2018-04-28T04:52:33.818Z,64.28
2018-04-28T04:53:14.335Z,64.28
2018-04-28T04:53:54.843Z,63.99
2018-04-28T04:54:35.366Z,64.12
2018-04-28T04:55:15.895Z,64.18
2018-04-28T04:55:56.408Z,64.18
2018-04-28T04:56:36.933Z,63.73
2018-04-28T04:57:17.460Z,63.92
2018-04-28T04:57:57.977Z,64.09
2018-04-28T04:58:38.497Z,63.99
2018-04-28T04:59:19.017Z,64.09
2018-04-28T04:59:59.547Z,64.09
2018-04-28T05:00:40.070Z,64.12
2018-04-28T05:01:20.593Z,64.4
2018-04-28T05:02:01.121Z,63.92
2018-04-28T05:02:41.631Z,63.99
2018-04-28T05:03:22.156Z,64.22
2018-04-28T05:04:02.675Z,64.31
2018-04-28T05:04:43.193Z,63.89
2018-04-28T05:05:23.743Z,63.89
2018-04-28T05:06:04.257Z,63.99
2018-04-28T05:06:44.769Z,63.99
2018-04-28T05:07:25.382Z,64.12
2018-04-28T05:08:05.791Z,63.89
2018-04-28T05:08:46.298Z,64.31
2018-04-28T05:09:26.820Z,64.22
2018-04-28T05:10:07.339Z,64.22
2018-04-28T05:10:47.856Z,64.12
2018-04-28T05:11:28.394Z,63.7
2018-04-28T05:12:08.918Z,64.18
2018-04-28T05:12:49.443Z,64.18
2018-04-28T05:13:29.965Z,64.09
2018-04-28T05:14:10.480Z,63.99
2018-04-28T05:14:51.010Z,64.09
2018-04-28T05:15:31.517Z,64.09
2018-04-28T05:16:12.032Z,63.99
2018-04-28T05:16:52.539Z,64.47
2018-04-28T05:17:33.058Z,64.28
2018-04-28T05:18:14.200Z,64.37
2018-04-28T05:18:54.105Z,64.09
2018-04-28T05:19:34.625Z,63.99
2018-04-28T05:20:15.152Z,64.31
2018-04-28T05:20:55.663Z,63.89
2018-04-28T05:21:36.185Z,64.02
2018-04-28T05:22:16.705Z,63.83
2018-04-28T05:22:57.230Z,63.89
2018-04-28T05:23:37.747Z,64.02
2018-04-28T05:24:18.269Z,64.12
2018-04-28T05:24:58.793Z,64.02
2018-04-28T05:25:39.314Z,64.02
2018-04-28T05:26:19.840Z,63.54
2018-04-28T05:27:00.357Z,63.64
2018-04-28T05:27:40.891Z,63.16
2018-04-28T05:28:21.430Z,63.35
2018-04-28T05:29:01.931Z,62.87
2018-04-28T05:29:42.456Z,63.25
2018-04-28T05:30:22.979Z,62.96
2018-04-28T05:31:03.503Z,63.16
2018-04-28T05:31:44.037Z,62.77
2018-04-28T05:32:24.553Z,63.25
2018-04-28T05:33:05.065Z,62.77
2018-04-28T05:33:45.599Z,62.81
2018-04-28T05:34:26.119Z,62.99
2018-04-28T05:35:06.649Z,62.99
2018-04-28T05:35:47.171Z,62.42
2018-04-28T05:36:27.683Z,62.42
2018-04-28T05:37:08.213Z,62.13
2018-04-28T05:37:48.739Z,61.94
2018-04-28T05:38:29.246Z,62.23
2018-04-28T05:39:09.766Z,61.55
2018-04-28T05:39:50.289Z,61.27
2018-04-28T05:40:30.816Z,60.98
2018-04-28T05:41:11.344Z,61.17
2018-04-28T05:41:51.874Z,61.08
2018-04-28T05:42:32.381Z,61.36
2018-04-28T05:43:12.897Z,61.2
2018-04-28T05:43:53.419Z,61.11
2018-04-28T05:44:33.928Z,60.14
2018-04-28T05:45:14.456Z,60.08
2018-04-28T05:45:54.982Z,59.28
2018-04-28T05:46:35.510Z,59.22
2018-04-28T05:47:16.014Z,58.83
2018-04-28T05:47:56.531Z,58.83
2018-04-28T05:48:37.056Z,58.83
2018-04-28T05:49:17.575Z,58.35
2018-04-28T05:49:58.084Z,58.35
2018-04-28T05:50:38.607Z,58.73
2018-04-28T05:51:19.115Z,58.35
2018-04-28T05:51:59.656Z,58.15
2018-04-28T05:52:40.177Z,59.02
2018-04-28T05:53:20.690Z,58.45
2018-04-28T05:54:01.207Z,58.54
2018-04-28T05:54:41.733Z,58.25
2018-04-28T05:55:22.271Z,58.83
2018-04-28T05:56:02.785Z,59.02
2018-04-28T05:56:43.303Z,58.35
2018-04-28T05:57:23.824Z,59.12
2018-04-28T05:58:04.352Z,59.19
2018-04-28T05:58:44.872Z,59.09
2018-04-28T05:59:25.388Z,59.19
2018-04-28T06:00:05.917Z,59.28
2018-04-28T06:00:46.435Z,59.38
2018-04-28T06:01:26.952Z,59.44
2018-04-28T06:02:07.470Z,59.16
2018-04-28T06:02:47.988Z,59.44
2018-04-28T06:03:28.687Z,59.64
2018-04-28T06:04:09.118Z,59.92
2018-04-28T06:04:49.642Z,60.11
2018-04-28T06:05:30.162Z,59.92
2018-04-28T06:06:10.672Z,60.31
2018-04-28T06:06:51.210Z,60.31
2018-04-28T06:07:31.731Z,60.78
2018-04-28T06:08:12.270Z,60.08
2018-04-28T06:08:52.831Z,60.75
2018-04-28T06:09:33.349Z,60.98
2018-04-28T06:10:13.870Z,60.78
2018-04-28T06:10:54.877Z,60.28
2018-04-28T06:11:35.577Z,60.18
2018-04-28T06:12:16.063Z,60.28
2018-04-28T06:12:56.595Z,60.38
2018-04-28T06:13:37.134Z,59.54
2018-04-28T06:14:17.664Z,59.92
2018-04-28T06:14:58.182Z,60.02
2018-04-28T06:15:38.708Z,60.31
2018-04-28T06:16:19.256Z,60.75
2018-04-28T06:16:59.773Z,61.05
2018-04-28T06:17:40.300Z,61.08
2018-04-28T06:18:20.908Z,60.31
2018-04-28T06:19:01.430Z,60.08
2018-04-28T06:19:42.078Z,60.21
2018-04-28T06:20:22.571Z,59.99
2018-04-28T06:21:03.128Z,60.28
2018-04-28T06:21:43.653Z,60.31
2018-04-28T06:22:24.180Z,60.6
2018-04-28T06:23:04.721Z,59.61
2018-04-28T06:23:45.241Z,60.08
2018-04-28T06:24:25.760Z,60.02
2018-04-28T06:25:06.278Z,60.02
2018-04-28T06:25:46.820Z,59.92
2018-04-28T06:26:27.348Z,59.34
2018-04-28T06:27:07.860Z,59.44
2018-04-28T06:27:48.386Z,59.25
2018-04-28T06:28:28.908Z,59.06
2018-04-28T06:29:09.422Z,58.96
2018-04-28T06:29:49.958Z,58.96
2018-04-28T06:30:30.485Z,58.87
2018-04-28T06:31:10.999Z,58.99
2018-04-28T06:31:51.529Z,58.2
2018-04-28T06:32:32.034Z,58.42
2018-04-28T06:33:12.539Z,57.93
2018-04-28T06:33:53.043Z,58.03
2018-04-28T06:34:33.557Z,57.84
2018-04-28T06:35:14.088Z,57.75
2018-04-28T06:35:54.645Z,57.36
2018-04-28T06:36:35.166Z,57.07
2018-04-28T06:37:15.670Z,57.75
2018-04-28T06:37:56.195Z,57.33
2018-04-28T06:38:36.706Z,57.62
2018-04-28T06:39:17.228Z,57.62
2018-04-28T06:39:57.754Z,57.52
2018-04-28T06:40:38.259Z,57.14
2018-04-28T06:41:18.902Z,56.95
2018-04-28T06:41:59.311Z,57.36
2018-04-28T06:42:39.839Z,56.68
2018-04-28T06:43:20.353Z,56.49
2018-04-28T06:44:00.869Z,56.52
2018-04-28T06:44:41.390Z,56.59
2018-04-28T06:45:21.922Z,55.63
2018-04-28T06:46:02.499Z,56.43
2018-04-28T06:46:43.011Z,55.37
2018-04-28T06:47:23.535Z,55.66
2018-04-28T06:48:04.046Z,55.66
2018-04-28T06:48:44.560Z,55.46
2018-04-28T06:49:25.089Z,54.89
2018-04-28T06:50:05.622Z,54.5
2018-04-28T06:50:46.143Z,54.43
2018-04-28T06:51:26.660Z,54.6
2018-04-28T06:52:07.185Z,54.14
2018-04-28T06:52:47.714Z,53.96
2018-04-28T06:53:28.230Z,54.53
2018-04-28T06:54:08.757Z,54.34
2018-04-28T06:54:49.296Z,54.34
2018-04-28T06:55:29.827Z,54.24
2018-04-28T06:56:10.346Z,54.43
2018-04-28T06:56:50.883Z,54.82
2018-04-28T06:57:31.412Z,54.82
2018-04-28T06:58:11.919Z,55.01
2018-04-28T06:58:52.436Z,54.43
2018-04-28T06:59:32.938Z,54.43
2018-04-28T07:00:13.457Z,54.53
2018-04-28T07:00:53.976Z,54.17
2018-04-28T07:01:34.492Z,54.65
2018-04-28T07:02:15.013Z,54.27
2018-04-28T07:02:55.535Z,54.17
2018-04-28T07:03:36.070Z,53.98
2018-04-28T07:04:16.808Z,54.08
2018-04-28T07:04:57.352Z,53.69
2018-04-28T07:05:37.871Z,54.17
2018-04-28T07:06:18.384Z,53.31
2018-04-28T07:06:58.904Z,53.02
2018-04-28T07:07:39.437Z,53.98
2018-04-28T07:08:19.961Z,54.14
2018-04-28T07:09:00.502Z,54.17
2018-04-28T07:09:41.017Z,54.08
2018-04-28T07:10:21.556Z,54.17
2018-04-28T07:11:02.078Z,53.88
2018-04-28T07:11:42.606Z,54.17
2018-04-28T07:12:23.137Z,54.36
2018-04-28T07:13:03.656Z,54.53
2018-04-28T07:13:44.184Z,55.11
2018-04-28T07:14:24.700Z,55.11
2018-04-28T07:15:05.239Z,55.4
2018-04-28T07:15:45.739Z,54.91
2018-04-28T07:16:26.355Z,54.82
2018-04-28T07:17:06.867Z,54.65
2018-04-28T07:17:47.407Z,54.56
2018-04-28T07:18:27.952Z,54.56
2018-04-28T07:19:08.515Z,54.27
2018-04-28T07:19:49.039Z,53.59
2018-04-28T07:20:29.561Z,53.4
2018-04-28T07:21:10.229Z,53.05
2018-04-28T07:21:50.680Z,52.47
2018-04-28T07:22:31.192Z,52.66
2018-04-28T07:23:11.735Z,52.27
2018-04-28T07:23:52.246Z,51.98
2018-04-28T07:24:32.772Z,52.15
2018-04-28T07:25:13.329Z,52.63
2018-04-28T07:25:53.854Z,52.73
2018-04-28T07:26:34.368Z,53.02
2018-04-28T07:27:14.929Z,53.02
2018-04-28T07:27:55.474Z,53.4
2018-04-28T07:28:36.001Z,54.63
2018-04-28T07:29:16.663Z,54.91
2018-04-28T07:29:57.135Z,55.01
2018-04-28T07:30:37.622Z,55.01
2018-04-28T07:31:18.139Z,55.49
2018-04-28T07:31:58.699Z,55.78
2018-04-28T07:32:39.194Z,55.49
2018-04-28T07:33:19.715Z,55.46
2018-04-28T07:34:00.232Z,54.5
2018-04-28T07:34:40.757Z,54.72
2018-04-28T07:35:21.276Z,54.56
2018-04-28T07:36:01.803Z,53.98
2018-04-28T07:36:42.359Z,54.63
2018-04-28T07:37:23.019Z,54.85
2018-04-28T07:38:03.528Z,54.63
2018-04-28T07:38:44.059Z,54.24
2018-04-28T07:39:24.726Z,54.91
2018-04-28T07:40:05.272Z,54.34
2018-04-28T07:40:45.784Z,54.63
2018-04-28T07:41:26.314Z,54.43
2018-04-28T07:42:06.804Z,54.34
2018-04-28T07:42:47.321Z,54.82
2018-04-28T07:43:27.863Z,54.53
2018-04-28T07:44:08.420Z,54.24
2018-04-28T07:44:48.988Z,54.43
2018-04-28T07:45:29.608Z,54.53
2018-04-28T07:46:10.066Z,54.43
2018-04-28T07:46:50.607Z,54.65
2018-04-28T07:47:31.283Z,54.17
2018-04-28T07:48:11.703Z,54.17
2018-04-28T07:48:52.235Z,54.56
2018-04-28T07:49:32.758Z,53.69
2018-04-28T07:50:13.260Z,53.4
2018-04-28T07:50:53.786Z,53.4
2018-04-28T07:51:34.339Z,53.69
2018-04-28T07:52:14.857Z,53.78
2018-04-28T07:52:55.367Z,54.27
2018-04-28T07:53:35.901Z,53.98
2018-04-28T07:54:16.405Z,53.59
2018-04-28T07:54:56.918Z,54.08
2018-04-28T07:55:37.515Z,53.78
2018-04-28T07:56:18.009Z,54.24
2018-04-28T07:56:58.551Z,54.43
2018-04-28T07:57:39.068Z,54.46
2018-04-28T07:58:19.623Z,54.27
2018-04-28T07:59:00.146Z,54.65
2018-04-28T07:59:40.679Z,54.75
2018-04-28T08:00:21.264Z,54.85
2018-04-28T08:01:01.741Z,54.75
2018-04-28T08:01:42.318Z,54.56
2018-04-28T08:02:22.784Z,54.56
2018-04-28T08:03:03.286Z,54.2
2018-04-28T08:03:43.803Z,53.69
2018-04-28T08:04:24.305Z,53.72
2018-04-28T08:05:04.829Z,53.53
2018-04-28T08:05:45.353Z,53.62
2018-04-28T08:06:25.914Z,53.91
2018-04-28T08:07:06.505Z,53.91
2018-04-28T08:07:46.942Z,53.33
2018-04-28T08:08:27.439Z,53.14
2018-04-28T08:09:07.969Z,53.23
2018-04-28T08:09:48.465Z,53.02
2018-04-28T08:10:29.037Z,53.59
2018-04-28T08:11:09.484Z,53.4
2018-04-28T08:11:50.001Z,53.78
2018-04-28T08:12:30.596Z,53.88
2018-04-28T08:13:11.096Z,54.27
2018-04-28T08:13:51.637Z,54.08
2018-04-28T08:14:32.208Z,54.36
2018-04-28T08:15:12.807Z,54.27
2018-04-28T08:15:53.232Z,54.36
2018-04-28T08:16:33.758Z,54.56
2018-04-28T08:17:14.294Z,54.36
2018-04-28T08:17:54.808Z,53.98
2018-04-28T08:18:35.322Z,54.65
2018-04-28T08:19:15.840Z,54.46
2018-04-28T08:21:29.158Z,54.3
2018-04-28T08:22:09.704Z,53.62
2018-04-28T08:22:50.310Z,53.53
2018-04-28T08:23:30.835Z,53.23
2018-04-28T08:24:11.348Z,53.53
2018-04-28T08:24:51.861Z,53.62
2018-04-28T08:25:32.367Z,53.81
2018-04-28T08:26:12.933Z,53.81
2018-04-28T08:26:53.456Z,53.91
2018-04-28T08:27:33.985Z,54.3
2018-04-28T08:28:14.512Z,54.3
2018-04-28T08:28:55.041Z,54
2018-04-28T08:29:35.553Z,54.2
2018-04-28T08:30:16.076Z,54.1
2018-04-28T08:30:56.590Z,54.3
2018-04-28T08:31:37.101Z,54.2
2018-04-28T08:32:17.642Z,54.1
2018-04-28T08:32:58.319Z,54.1
2018-04-28T08:33:38.832Z,54.58
2018-04-28T08:34:19.346Z,54.3
2018-04-28T08:34:59.884Z,54.49
2018-04-28T08:35:40.386Z,54.49
2018-04-28T08:36:20.904Z,54.39
2018-04-28T08:37:01.519Z,54.58
2018-04-28T08:37:41.966Z,54.2
2018-04-28T08:38:22.484Z,54.49
2018-04-28T08:39:03.013Z,54.3
2018-04-28T08:39:43.526Z,54.68
2018-04-28T08:40:24.039Z,54.58
2018-04-28T08:41:04.552Z,55.16
2018-04-28T08:41:45.074Z,54.49
2018-04-28T08:42:25.590Z,54.3
2018-04-28T08:43:06.105Z,54.1
2018-04-28T08:43:46.630Z,54
2018-04-28T08:44:27.190Z,53.14